Springfield Branson National Airport
KSGF : now visible

Airfield :











YOU CAN JOIN US ON...

 
LOGIN :

Register | Disclaimer

   EN    FR    IT 

 









Legend :    VFR   Marginal VFR   IFR   Intensive IFR   Very Intensive IFR
Visi :
Ceiling :
>= 8 km
>= 3000ft
5 to 8 km
1000 to 3000 ft
1500m to 5 km
500 to 1000 ft
800 to 1500m
200 to 500 ft
< 800m
< 200 ft
Symbols :   Thunderstorms  Fog  Heavy snow  Heavy precipitations  Wind > 20 kt







- Airport Elevation : 1268 ft
- IATA code : SGF


KSGF - Springfield Branson National

CURRENT METAR :
  • 210452Z 32004KT 7SM CLR 01/M02 A3004 RMK AO2 SLP182 T00111017

EXPIRED METARs :
  • 210352Z 33003KT 7SM CLR 02/M01 A3003 RMK AO2 SLP176 T00171011
  • 210252Z 00000KT 8SM CLR 02/M01 A3000 RMK AO2 SLP167 T00221011 53027

TAF KSGF
Valid from the 21 at 00:00 until the 22 at 00:00 UTC


202320Z 2100/2124 28008KT P6SM SCT250
FM210200 24006KT P6SM SCT140
FM210600 VRB04KT P6SM BKN200
KZKC FIR / North America



MET'MAP, your aeronautical weather chart ! - Copyright ORBIFLY December 2007 - Disclaimer

ORBIFLY MET'MAP TEAM :

Programming & Development : Alexandra Zaïnal
Concept & Development : Baudouin d'Aumeries
Co-Development & Prog : Marc-Olivier Méhu
Technical & hardware support : Manuel Goepfert

Contact : metmap@orbifly.com




SOURCES & CREDITS :

   NOAA       Earth
Advisory